Time;durP1;ratioP1;P1;durP2;ratioP2;P2;SDS_P1;SDS_P2;PMS_P1;PMS_P2;Temp;Humidity;BMP_temperature;BMP_pressure;BME280_temperature;BME280_humidity;BME280_pressure;Samples;Min_cycle;Max_cycle;Signal;HPM_P1;HPM_P2
2024/01/28 00:00:01;;;;;;;14.27;6.25;;;-0.20;99.90;;;;;;5071898;28;20032;-74
2024/01/28 00:02:26;;;;;;;12.77;6.28;;;-0.20;99.90;;;;;;5072071;28;20075;-74
2024/01/28 00:04:52;;;;;;;12.68;6.43;;;-0.20;99.90;;;;;;5053950;28;20481;-74
2024/01/28 00:07:18;;;;;;;15.52;7.57;;;-0.10;99.90;;;;;;5054026;28;20107;-74
2024/01/28 00:09:44;;;;;;;10.27;6.07;;;-0.20;99.90;;;;;;5053527;28;20028;-73
2024/01/28 00:12:10;;;;;;;11.05;5.72;;;-0.30;99.90;;;;;;5053685;28;20052;-73
2024/01/28 00:14:37;;;;;;;19.42;7.13;;;-0.30;99.90;;;;;;5071242;28;20310;-74
2024/01/28 00:17:03;;;;;;;16.42;8.15;;;-0.40;99.90;;;;;;5071583;28;20066;-75
2024/01/28 00:19:29;;;;;;;15.20;7.78;;;-0.30;99.90;;;;;;5071411;28;20036;-73
2024/01/28 00:21:54;;;;;;;9.52;5.95;;;-0.20;99.90;;;;;;5053636;28;20116;-74
2024/01/28 00:24:21;;;;;;;12.75;7.07;;;-0.20;99.90;;;;;;5071686;28;20431;-74
2024/01/28 00:26:47;;;;;;;16.83;6.55;;;-0.20;99.90;;;;;;5071604;28;20245;-76
2024/01/28 00:29:13;;;;;;;16.15;7.45;;;0.00;99.90;;;;;;5071530;28;20218;-74
2024/01/28 00:31:39;;;;;;;15.35;6.35;;;-0.10;99.90;;;;;;5071564;28;20400;-75
2024/01/28 00:34:04;;;;;;;14.55;5.93;;;-0.10;99.90;;;;;;5071108;28;20048;-74
2024/01/28 00:36:31;;;;;;;9.68;5.35;;;-0.20;99.90;;;;;;5071288;28;20111;-74
2024/01/28 00:38:56;;;;;;;10.20;5.30;;;-0.20;99.90;;;;;;5053164;28;20078;-75
2024/01/28 00:41:26;;;;;;;10.40;6.13;;;-0.20;99.90;;;;;;5071130;28;20489;-74
2024/01/28 00:43:52;;;;;;;;;;;-0.20;99.90;;;;;;5071247;28;20029;-75
2024/01/28 00:46:20;;;;;;;11.07;5.80;;;-0.20;99.90;;;;;;5071086;28;19916;-75
2024/01/28 00:48:46;;;;;;;14.25;5.32;;;-0.20;99.90;;;;;;5071359;28;20052;-73
2024/01/28 00:51:13;;;;;;;8.80;4.72;;;-0.10;99.90;;;;;;5070880;28;20020;-75
2024/01/28 00:53:38;;;;;;;13.23;5.40;;;0.10;99.90;;;;;;5070823;28;20080;-74
2024/01/28 00:56:04;;;;;;;11.43;6.10;;;0.00;99.90;;;;;;5070987;28;20465;-75
2024/01/28 00:58:30;;;;;;;16.70;6.85;;;0.10;99.90;;;;;;5070483;28;20047;-75
2024/01/28 01:00:56;;;;;;;11.77;8.10;;;0.70;99.90;;;;;;5070799;28;20481;-74
2024/01/28 01:03:22;;;;;;;11.57;6.63;;;0.20;99.90;;;;;;5052767;28;20059;-75
2024/01/28 01:05:48;;;;;;;13.43;7.22;;;0.10;99.90;;;;;;5070808;28;20012;-74
2024/01/28 01:08:16;;;;;;;11.82;5.55;;;0.00;99.90;;;;;;5052709;28;20021;-74
2024/01/28 01:10:42;;;;;;;9.80;5.50;;;-0.10;99.90;;;;;;5070426;28;20031;-75
2024/01/28 01:13:08;;;;;;;6.93;4.75;;;-0.20;99.90;;;;;;5070101;28;20381;-74
2024/01/28 01:15:34;;;;;;;12.00;5.30;;;-0.30;99.90;;;;;;5052252;28;20029;-74
2024/01/28 01:18:00;;;;;;;15.95;5.88;;;-0.10;99.90;;;;;;5052492;28;20025;-74
2024/01/28 01:20:25;;;;;;;9.77;5.70;;;-0.20;99.90;;;;;;5070218;28;20068;-75
2024/01/28 01:22:53;;;;;;;9.45;5.32;;;-0.20;99.90;;;;;;5069640;28;20094;-76
2024/01/28 01:25:19;;;;;;;15.68;6.53;;;-0.10;99.90;;;;;;5070250;28;20024;-76
2024/01/28 01:27:45;;;;;;;9.80;6.20;;;0.20;99.90;;;;;;5070277;28;20381;-76
2024/01/28 01:30:12;;;;;;;10.27;5.22;;;-0.10;99.90;;;;;;5070066;28;20078;-75
2024/01/28 01:32:40;;;;;;;10.68;7.43;;;-0.20;99.90;;;;;;5069979;28;20063;-75
2024/01/28 01:35:08;;;;;;;16.63;6.80;;;-0.10;99.90;;;;;;5069928;28;20080;-75
2024/01/28 01:37:34;;;;;;;11.70;6.85;;;-0.10;99.90;;;;;;5070165;28;20025;-75
2024/01/28 01:40:00;;;;;;;12.52;6.53;;;-0.20;99.90;;;;;;5051882;28;20090;-76
2024/01/28 01:42:26;;;;;;;8.43;5.63;;;-0.30;99.90;;;;;;5069561;28;20103;-75
2024/01/28 01:44:52;;;;;;;9.52;5.72;;;-0.30;99.90;;;;;;5052004;28;20118;-75
2024/01/28 01:47:18;;;;;;;8.95;4.97;;;-0.30;99.90;;;;;;5051884;28;20412;-75
2024/01/28 01:49:45;;;;;;;13.95;6.70;;;-0.40;99.90;;;;;;5070045;28;20033;-75
2024/01/28 01:52:11;;;;;;;11.27;6.78;;;-0.40;99.90;;;;;;5069936;28;20024;-75
2024/01/28 01:54:37;;;;;;;9.55;5.28;;;-0.40;99.90;;;;;;5070010;28;20023;-76
2024/01/28 01:57:03;;;;;;;20.63;8.68;;;0.00;99.90;;;;;;5052039;28;20028;-76
2024/01/28 01:59:30;;;;;;;12.55;5.93;;;-0.30;99.90;;;;;;5069349;28;20099;-75
2024/01/28 02:01:59;;;;;;;7.95;4.97;;;-0.30;99.90;;;;;;5069773;28;20017;-76
2024/01/28 02:04:25;;;;;;;8.02;5.47;;;-0.20;99.90;;;;;;5069948;28;20074;-75
2024/01/28 02:06:51;;;;;;;9.90;5.40;;;-0.40;99.90;;;;;;5069920;28;20031;-76
2024/01/28 02:09:19;;;;;;;12.73;5.88;;;-0.30;99.90;;;;;;5069613;28;20021;-76
2024/01/28 02:11:45;;;;;;;9.70;5.90;;;-0.40;99.90;;;;;;5069891;28;20588;-75
2024/01/28 02:14:20;;;;;;;9.38;5.72;;;-0.40;99.90;;;;;;5051633;28;20024;-75
2024/01/28 02:16:48;;;;;;;12.90;6.50;;;0.00;99.90;;;;;;5069843;28;20024;-75
2024/01/28 02:19:14;;;;;;;8.85;5.10;;;-0.20;99.90;;;;;;5069499;28;20392;-76
2024/01/28 02:21:40;;;;;;;16.73;7.00;;;-0.30;99.90;;;;;;5069592;28;20035;-75
2024/01/28 02:24:06;;;;;;;12.88;6.43;;;-0.10;99.90;;;;;;5051542;28;20025;-76
2024/01/28 02:26:31;;;;;;;10.88;6.30;;;-0.10;99.90;;;;;;5051270;28;20035;-76
2024/01/28 02:28:57;;;;;;;13.15;6.25;;;-0.20;99.90;;;;;;5069064;28;20067;-75
2024/01/28 02:31:23;;;;;;;9.65;6.10;;;-0.30;99.90;;;;;;5069659;28;20098;-75
2024/01/28 02:33:49;;;;;;;13.38;5.85;;;-0.50;99.90;;;;;;5071977;28;20048;-75
2024/01/28 02:36:15;;;;;;;15.35;6.20;;;-0.60;99.90;;;;;;5055690;28;20029;-75
2024/01/28 02:38:41;;;;;;;14.80;6.07;;;-0.60;99.90;;;;;;5055473;28;20048;-75
2024/01/28 02:41:10;;;;;;;14.70;6.90;;;-0.60;99.90;;;;;;5073322;28;20028;-75
2024/01/28 02:43:35;;;;;;;11.43;6.03;;;-0.60;99.90;;;;;;5055132;28;20482;-76
2024/01/28 02:46:01;;;;;;;9.73;5.75;;;-0.60;99.90;;;;;;5055194;28;20035;-76
2024/01/28 02:48:27;;;;;;;11.27;5.57;;;-0.60;99.90;;;;;;5055261;28;20017;-77
2024/01/28 02:50:53;;;;;;;9.38;5.05;;;-0.80;99.90;;;;;;5073159;28;20035;-76
2024/01/28 02:53:19;;;;;;;18.73;6.15;;;-0.70;99.90;;;;;;5073462;28;20025;-76
2024/01/28 02:55:44;;;;;;;8.93;5.00;;;-0.70;99.90;;;;;;5054997;28;20047;-76
2024/01/28 02:58:10;;;;;;;10.80;5.22;;;-0.80;99.90;;;;;;5072664;28;20025;-75
2024/01/28 03:00:36;;;;;;;8.27;5.85;;;-0.80;99.90;;;;;;5073154;28;20078;-76
2024/01/28 03:03:07;;;;;;;12.80;5.70;;;-0.80;99.90;;;;;;5070717;28;20553;-76
2024/01/28 03:05:33;;;;;;;10.35;5.43;;;-0.60;99.90;;;;;;5072467;28;20044;-75
2024/01/28 03:08:02;;;;;;;12.80;5.95;;;0.00;99.90;;;;;;5072575;28;20068;-75
2024/01/28 03:10:28;;;;;;;18.10;6.32;;;-0.30;99.90;;;;;;5073120;28;20021;-75
2024/01/28 03:12:54;;;;;;;13.48;6.57;;;-0.20;99.90;;;;;;5072541;28;20024;-75
2024/01/28 03:15:20;;;;;;;11.52;5.80;;;-0.20;99.90;;;;;;5072700;28;20035;-75
2024/01/28 03:17:46;;;;;;;12.73;5.32;;;-0.40;99.90;;;;;;5072481;28;20078;-75
2024/01/28 03:20:11;;;;;;;9.85;5.55;;;-0.60;99.90;;;;;;5054434;28;20041;-76
2024/01/28 03:22:37;;;;;;;13.10;6.32;;;-0.60;99.90;;;;;;5072416;28;20023;-75
2024/01/28 03:25:04;;;;;;;10.32;5.95;;;-0.20;99.90;;;;;;5072637;28;20545;-75
2024/01/28 03:27:30;;;;;;;11.25;5.82;;;-0.70;99.90;;;;;;5054165;28;20523;-76
2024/01/28 03:29:56;;;;;;;10.90;6.45;;;-0.70;99.90;;;;;;5054582;28;20040;-75
2024/01/28 03:32:21;;;;;;;12.80;6.43;;;-0.60;99.90;;;;;;5072802;28;20025;-75
2024/01/28 03:34:47;;;;;;;12.50;5.65;;;-0.50;99.90;;;;;;5082224;28;20412;-75
2024/01/28 03:37:13;;;;;;;12.05;6.53;;;-0.50;99.90;;;;;;5092511;28;20020;-75
2024/01/28 03:39:39;;;;;;;15.27;7.00;;;-0.50;99.90;;;;;;5091068;28;21122;-75
2024/01/28 03:42:04;;;;;;;18.95;6.47;;;-0.40;99.90;;;;;;5091068;28;20499;-75
2024/01/28 03:44:30;;;;;;;15.35;6.72;;;-0.40;99.90;;;;;;5090418;28;20611;-75
2024/01/28 03:46:57;;;;;;;13.88;6.10;;;-0.30;99.90;;;;;;5092979;28;20036;-75
2024/01/28 03:49:22;;;;;;;20.85;8.05;;;-0.40;99.90;;;;;;5091315;28;20030;-74
2024/01/28 03:51:48;;;;;;;16.63;6.47;;;-0.40;99.90;;;;;;5091001;28;20115;-75
2024/01/28 03:54:14;;;;;;;13.63;6.97;;;-0.30;99.90;;;;;;5092834;28;20012;-75
2024/01/28 03:56:40;;;;;;;12.93;6.78;;;-0.40;99.90;;;;;;5092515;28;20389;-74
2024/01/28 03:59:06;;;;;;;14.63;7.72;;;-0.30;99.90;;;;;;5090465;28;20024;-75
2024/01/28 04:01:33;;;;;;;14.50;6.82;;;-0.40;99.90;;;;;;5092224;28;20401;-74
2024/01/28 04:03:59;;;;;;;16.13;7.40;;;-0.40;99.90;;;;;;5091220;28;20044;-75
2024/01/28 04:06:28;;;;;;;16.30;6.68;;;-0.30;99.90;;;;;;5092156;28;20106;-75
2024/01/28 04:08:55;;;;;;;16.45;7.80;;;-0.30;99.90;;;;;;5092115;28;20046;-75
2024/01/28 04:11:27;;;;;;;12.05;7.55;;;-0.40;99.90;;;;;;5090609;28;20028;-76
2024/01/28 04:13:55;;;;;;;14.00;7.63;;;-0.40;99.90;;;;;;5091621;28;20016;-75
2024/01/28 04:16:22;;;;;;;19.83;7.53;;;-0.30;99.90;;;;;;5091625;28;20170;-75
2024/01/28 04:18:49;;;;;;;16.88;9.32;;;-0.40;99.90;;;;;;5090339;28;20502;-75
2024/01/28 04:21:14;;;;;;;14.65;6.78;;;-0.30;99.90;;;;;;5091841;28;20042;-75
2024/01/28 04:23:40;;;;;;;14.15;7.40;;;-0.20;99.90;;;;;;5091826;28;20032;-75
2024/01/28 04:26:07;;;;;;;17.02;7.80;;;-0.20;99.90;;;;;;5091970;28;20015;-75
2024/01/28 04:28:33;;;;;;;16.55;6.97;;;-0.30;99.90;;;;;;5089936;28;20024;-75
2024/01/28 04:30:59;;;;;;;14.10;7.35;;;-0.20;99.90;;;;;;5091487;28;20077;-75
2024/01/28 04:33:24;;;;;;;18.45;8.43;;;-0.40;99.90;;;;;;5087202;28;20060;-75
2024/01/28 04:35:50;;;;;;;17.08;7.28;;;-0.40;99.90;;;;;;5071399;28;20029;-75
2024/01/28 04:38:16;;;;;;;15.10;8.43;;;-0.40;99.90;;;;;;5071327;28;20025;-75
2024/01/28 04:40:42;;;;;;;13.93;7.38;;;-0.40;99.90;;;;;;5053010;28;20374;-75
2024/01/28 04:43:08;;;;;;;18.33;9.50;;;-0.40;99.90;;;;;;5070823;28;20021;-75
2024/01/28 04:45:34;;;;;;;14.88;7.55;;;-0.40;99.90;;;;;;5071198;28;20025;-75
2024/01/28 04:48:00;;;;;;;19.13;9.75;;;-0.30;99.90;;;;;;5053033;28;20504;-74
2024/01/28 04:50:26;;;;;;;18.17;7.68;;;-0.40;99.90;;;;;;5071047;28;20101;-75
2024/01/28 04:52:52;;;;;;;11.95;6.43;;;-0.60;99.90;;;;;;5070954;28;20485;-75
2024/01/28 04:55:18;;;;;;;15.48;7.95;;;-0.70;99.90;;;;;;5052785;28;20035;-74
2024/01/28 04:57:43;;;;;;;16.83;7.85;;;-0.80;99.90;;;;;;5051363;28;20056;-75
2024/01/28 05:00:10;;;;;;;18.63;8.25;;;-0.70;99.90;;;;;;5070810;28;20056;-76
2024/01/28 05:02:39;;;;;;;15.27;6.47;;;-0.80;99.90;;;;;;5070592;28;20477;-74
2024/01/28 05:05:05;;;;;;;14.00;7.40;;;-0.70;99.90;;;;;;5052733;28;20125;-75
2024/01/28 05:07:31;;;;;;;17.67;7.45;;;-0.80;99.90;;;;;;5070683;28;20477;-74
2024/01/28 05:09:57;;;;;;;13.05;7.00;;;-0.80;99.90;;;;;;5070560;28;20069;-76
2024/01/28 05:12:23;;;;;;;15.43;7.43;;;-0.90;99.90;;;;;;5052190;28;20129;-75
2024/01/28 05:14:49;;;;;;;17.00;7.07;;;-0.80;99.90;;;;;;5070428;28;20031;-75
2024/01/28 05:17:17;;;;;;;10.73;6.40;;;-0.90;99.90;;;;;;5052437;28;20016;-75
2024/01/28 05:19:43;;;;;;;17.10;8.57;;;-0.90;99.90;;;;;;5070597;28;20493;-76
2024/01/28 05:22:09;;;;;;;22.67;9.70;;;-0.90;99.90;;;;;;5070723;28;20034;-74
2024/01/28 05:24:34;;;;;;;15.15;8.05;;;-0.80;99.90;;;;;;5052551;28;21075;-75
2024/01/28 05:27:02;;;;;;;20.17;8.02;;;-0.70;99.90;;;;;;5070392;28;20021;-74
2024/01/28 05:29:28;;;;;;;20.70;8.50;;;-0.80;99.90;;;;;;5069992;28;20021;-75
2024/01/28 05:31:57;;;;;;;16.63;8.10;;;-0.80;99.90;;;;;;5070267;28;20126;-74
2024/01/28 05:34:23;;;;;;;11.50;6.13;;;-0.70;99.90;;;;;;5069879;28;20123;-75
2024/01/28 05:36:49;;;;;;;19.52;7.50;;;-0.90;99.90;;;;;;5070191;28;20108;-74
2024/01/28 05:39:18;;;;;;;16.58;7.43;;;-0.90;99.90;;;;;;5052022;28;20083;-75
2024/01/28 05:41:44;;;;;;;18.00;7.32;;;-0.80;99.90;;;;;;5070034;28;20031;-74
2024/01/28 05:44:10;;;;;;;15.90;7.10;;;-0.80;99.90;;;;;;5069528;28;20032;-75
2024/01/28 05:46:36;;;;;;;16.17;7.00;;;-1.00;99.90;;;;;;5069781;28;20026;-74
2024/01/28 05:49:02;;;;;;;16.98;7.40;;;-1.20;99.90;;;;;;5069795;28;20090;-74
2024/01/28 05:51:28;;;;;;;15.75;7.85;;;-1.20;99.90;;;;;;5051788;28;20039;-75
2024/01/28 05:53:55;;;;;;;14.18;6.57;;;-1.20;99.90;;;;;;5069838;28;20488;-74
2024/01/28 05:56:21;;;;;;;13.82;6.45;;;-1.30;99.90;;;;;;5069985;28;20067;-75
2024/01/28 05:58:48;;;;;;;21.70;7.78;;;-1.30;99.90;;;;;;5069557;28;20043;-75
2024/01/28 06:01:15;;;;;;;15.68;6.47;;;-1.40;99.90;;;;;;5069912;28;20033;-75
2024/01/28 06:03:41;;;;;;;14.73;7.38;;;-1.50;99.90;;;;;;5069778;28;20016;-76
2024/01/28 06:06:07;;;;;;;17.40;6.88;;;-1.40;99.90;;;;;;5069571;28;20377;-73
2024/01/28 06:08:33;;;;;;;18.00;8.27;;;-1.30;99.90;;;;;;5069296;28;20099;-74
2024/01/28 06:11:02;;;;;;;13.75;7.53;;;-1.20;99.90;;;;;;5051661;28;20043;-75
2024/01/28 06:13:28;;;;;;;20.38;9.55;;;-1.20;99.90;;;;;;5069307;28;20149;-74
2024/01/28 06:15:53;;;;;;;13.60;7.60;;;-1.30;99.90;;;;;;5069843;28;20103;-74
2024/01/28 06:18:22;;;;;;;19.75;8.85;;;-1.40;99.90;;;;;;5069637;28;20013;-76
2024/01/28 06:20:48;;;;;;;17.98;8.80;;;-1.50;99.90;;;;;;5069483;28;20115;-74
2024/01/28 06:23:22;;;;;;;17.52;8.52;;;-1.20;99.90;;;;;;5069470;28;20146;-74
2024/01/28 06:25:48;;;;;;;21.48;9.60;;;-1.40;99.90;;;;;;5051522;28;20070;-74
2024/01/28 06:28:14;;;;;;;15.75;7.30;;;-1.20;99.90;;;;;;5069254;28;20086;-74
2024/01/28 06:30:43;;;;;;;15.75;8.13;;;-1.20;99.90;;;;;;5069580;28;20028;-74
2024/01/28 06:33:11;;;;;;;17.58;8.85;;;-1.20;99.90;;;;;;5069392;28;20028;-75
2024/01/28 06:35:37;;;;;;;20.02;8.63;;;-1.10;99.90;;;;;;5069535;28;20033;-74
2024/01/28 06:38:02;;;;;;;22.45;9.25;;;-1.00;99.90;;;;;;5069317;28;20487;-74
2024/01/28 06:40:28;;;;;;;15.82;8.40;;;-0.80;99.90;;;;;;5051223;28;20044;-74
2024/01/28 06:42:54;;;;;;;16.95;8.93;;;-0.90;99.90;;;;;;5068966;28;20024;-75
2024/01/28 06:45:23;;;;;;;18.58;8.23;;;-1.10;99.90;;;;;;5069304;28;20044;-74
2024/01/28 06:47:50;;;;;;;22.10;8.95;;;-1.30;99.90;;;;;;5069094;28;20035;-74
2024/01/28 06:50:16;;;;;;;27.83;9.45;;;-1.40;99.90;;;;;;5051333;28;20033;-74
2024/01/28 06:52:42;;;;;;;15.38;8.05;;;-1.50;99.90;;;;;;5062733;28;20020;-74
2024/01/28 06:55:09;;;;;;;24.75;8.98;;;-1.60;99.90;;;;;;5066760;28;20025;-74
2024/01/28 06:57:37;;;;;;;20.42;8.95;;;-1.60;99.90;;;;;;5068970;28;20021;-74
2024/01/28 07:00:05;;;;;;;20.17;9.02;;;-1.60;99.90;;;;;;5068738;28;20029;-74
2024/01/28 07:02:31;;;;;;;20.35;9.20;;;-1.60;99.90;;;;;;5051407;28;20424;-74
2024/01/28 07:04:57;;;;;;;21.65;8.98;;;-1.60;99.90;;;;;;5050985;28;20031;-75
2024/01/28 07:07:23;;;;;;;24.45;9.05;;;-1.60;99.90;;;;;;5068988;28;20020;-74
2024/01/28 07:09:48;;;;;;;27.10;10.35;;;-1.60;99.90;;;;;;5052045;28;20462;-74
2024/01/28 07:12:14;;;;;;;28.42;9.15;;;-1.50;99.90;;;;;;5048419;28;20404;-74
2024/01/28 07:14:41;;;;;;;24.38;9.15;;;-1.50;99.90;;;;;;5049009;28;20100;-74
2024/01/28 07:17:08;;;;;;;24.58;11.75;;;-1.60;99.90;;;;;;5030915;28;20036;-74
2024/01/28 07:19:35;;;;;;;17.85;8.48;;;-1.60;99.90;;;;;;5049079;28;20025;-75
2024/01/28 07:22:01;;;;;;;19.38;8.70;;;-1.70;99.90;;;;;;5034371;28;20033;-74
2024/01/28 07:24:27;;;;;;;20.50;9.48;;;-1.50;99.90;;;;;;5052670;28;20017;-75
2024/01/28 07:26:53;;;;;;;18.33;10.15;;;-1.50;99.90;;;;;;5034369;28;20451;-74
2024/01/28 07:29:19;;;;;;;26.25;8.38;;;-1.60;99.90;;;;;;5052907;28;20029;-75
2024/01/28 07:31:44;;;;;;;23.52;9.85;;;-1.60;99.90;;;;;;5052246;28;20409;-74
2024/01/28 07:34:10;;;;;;;18.40;8.02;;;-1.50;99.90;;;;;;5052104;28;20049;-75
2024/01/28 07:36:36;;;;;;;21.30;10.32;;;-1.50;99.90;;;;;;5052342;28;20234;-75
2024/01/28 07:39:04;;;;;;;21.00;10.15;;;-1.50;99.90;;;;;;5052453;28;20210;-74
2024/01/28 07:41:34;;;;;;;24.38;10.05;;;-1.40;99.90;;;;;;5034187;28;20386;-74
2024/01/28 07:44:00;;;;;;;34.00;15.70;;;-1.50;99.90;;;;;;5051057;28;20024;-74
2024/01/28 07:46:26;;;;;;;24.45;12.25;;;-1.40;99.90;;;;;;5034047;28;20029;-75
2024/01/28 07:48:51;;;;;;;25.73;10.90;;;-1.30;99.90;;;;;;5052158;28;20535;-75
2024/01/28 07:51:17;;;;;;;22.27;12.10;;;-1.00;99.90;;;;;;5052072;28;20462;-75
2024/01/28 07:53:46;;;;;;;22.30;9.98;;;-1.00;99.90;;;;;;5051776;28;20033;-74
2024/01/28 07:56:12;;;;;;;20.60;11.18;;;-1.10;99.90;;;;;;5051892;28;20100;-75
2024/01/28 07:58:38;;;;;;;20.98;10.13;;;-1.10;99.90;;;;;;5051769;28;20108;-75
2024/01/28 08:01:07;;;;;;;22.08;10.90;;;-0.90;99.90;;;;;;5051869;28;20064;-75
2024/01/28 08:03:33;;;;;;;24.83;11.25;;;-0.60;99.90;;;;;;5033943;28;20021;-74
2024/01/28 08:06:01;;;;;;;21.05;10.27;;;-0.60;99.90;;;;;;5052037;28;20078;-74
2024/01/28 08:08:31;;;;;;;31.02;13.07;;;-0.60;99.90;;;;;;5051711;28;20021;-74
2024/01/28 08:10:58;;;;;;;94.57;43.10;;;-0.50;99.90;;;;;;5033459;28;20657;-74
2024/01/28 08:13:23;;;;;;;43.08;18.05;;;-0.40;99.90;;;;;;5032616;28;20279;-75
2024/01/28 08:15:49;;;;;;;31.88;15.27;;;-0.20;99.90;;;;;;5051551;28;20648;-75
2024/01/28 08:18:15;;;;;;;32.75;12.63;;;-0.10;99.90;;;;;;5033533;28;20021;-75
2024/01/28 08:20:41;;;;;;;25.30;12.48;;;0.00;99.90;;;;;;5051355;28;20094;-74
2024/01/28 08:23:06;;;;;;;25.38;10.68;;;0.00;99.90;;;;;;5033362;28;20017;-75
2024/01/28 08:25:32;;;;;;;26.23;13.35;;;0.00;99.90;;;;;;5051386;28;20033;-75
2024/01/28 08:27:58;;;;;;;25.50;11.68;;;0.00;99.90;;;;;;5051009;28;20088;-75
2024/01/28 08:30:23;;;;;;;29.02;12.63;;;-0.10;99.90;;;;;;5051018;28;20359;-75
2024/01/28 08:32:52;;;;;;;23.25;11.30;;;-0.10;99.90;;;;;;5051125;28;20119;-74
2024/01/28 08:35:43;;;;;;;30.05;13.00;;;0.00;99.90;;;;;;5069034;28;20044;-75
2024/01/28 08:38:14;;;;;;;24.60;11.30;;;0.00;99.90;;;;;;5069668;28;20485;-74
2024/01/28 08:40:49;;;;;;;23.42;10.68;;;0.00;99.90;;;;;;5069505;28;20060;-75
2024/01/28 08:43:32;;;;;;;24.25;11.52;;;0.00;99.90;;;;;;5072364;28;20077;-76
2024/01/28 08:46:04;;;;;;;27.13;13.05;;;0.10;99.90;;;;;;5090905;28;20491;-75
2024/01/28 08:48:30;;;;;;;24.92;11.70;;;0.30;99.90;;;;;;5090931;28;20023;-74
2024/01/28 08:51:05;;;;;;;29.80;13.50;;;0.40;99.90;;;;;;5083468;28;20504;-74
2024/01/28 08:53:30;;;;;;;30.38;14.85;;;0.60;99.90;;;;;;5077187;28;20396;-75
2024/01/28 08:56:25;;;;;;;30.55;13.88;;;0.70;99.90;;;;;;5083466;28;20019;-74
2024/01/28 08:59:00;;;;;;;33.40;13.57;;;0.90;99.90;;;;;;5068160;28;20044;-77
2024/01/28 09:01:29;;;;;;;37.03;17.15;;;1.10;99.90;;;;;;5069201;28;20132;-75
2024/01/28 09:04:10;;;;;;;38.50;17.03;;;1.20;99.90;;;;;;5068691;28;20285;-75
2024/01/28 09:06:39;;;;;;;29.80;14.48;;;1.40;99.90;;;;;;5068567;28;20017;-75
2024/01/28 09:09:10;;;;;;;30.45;14.18;;;1.60;99.90;;;;;;5068795;28;20023;-75
2024/01/28 09:11:37;;;;;;;30.63;15.02;;;1.80;99.90;;;;;;5067903;28;20684;-75
2024/01/28 09:14:03;;;;;;;30.88;13.82;;;1.90;99.90;;;;;;5068622;28;20267;-75
2024/01/28 09:16:28;;;;;;;36.08;16.70;;;2.00;99.90;;;;;;5067548;28;20082;-76
2024/01/28 09:18:54;;;;;;;34.47;16.80;;;2.10;99.90;;;;;;5068676;28;20016;-76
2024/01/28 09:21:22;;;;;;;30.75;15.30;;;1.90;99.90;;;;;;5069095;28;20032;-75
2024/01/28 09:23:48;;;;;;;35.17;15.23;;;2.30;99.90;;;;;;5070212;28;20024;-75
2024/01/28 09:26:14;;;;;;;42.15;19.90;;;2.50;99.90;;;;;;5070255;28;20043;-76
2024/01/28 09:28:39;;;;;;;46.75;22.00;;;2.70;99.90;;;;;;5068440;28;20366;-76
2024/01/28 09:31:08;;;;;;;52.03;20.15;;;2.90;99.90;;;;;;5070343;28;20016;-75
2024/01/28 09:33:34;;;;;;;41.10;19.15;;;2.90;99.90;;;;;;5064811;28;20528;-76
2024/01/28 09:36:01;;;;;;;35.42;16.90;;;3.10;99.90;;;;;;5032394;28;20120;-76
2024/01/28 09:38:27;;;;;;;51.25;19.63;;;3.20;99.90;;;;;;5032120;28;20024;-73
2024/01/28 09:40:53;;;;;;;39.72;18.58;;;3.30;99.90;;;;;;5050326;28;20492;-76
2024/01/28 09:43:31;;;;;;;46.45;20.90;;;3.40;99.90;;;;;;5054029;28;20044;-76
2024/01/28 09:45:58;;;;;;;33.50;16.10;;;3.60;99.90;;;;;;5055262;28;20545;-76
2024/01/28 09:48:24;;;;;;;37.53;16.77;;;3.60;99.90;;;;;;5059941;28;20024;-75
2024/01/28 09:50:50;;;;;;;37.22;18.02;;;3.10;99.90;;;;;;5043590;28;20032;-75
2024/01/28 09:53:16;;;;;;;37.30;17.90;;;3.70;99.90;;;;;;5060042;28;20013;-75
2024/01/28 09:55:41;;;;;;;36.53;17.80;;;3.70;99.90;;;;;;5057932;28;20033;-76
2024/01/28 09:58:08;;;;;;;38.92;17.70;;;3.90;99.90;;;;;;5040722;28;20016;-75
2024/01/28 10:00:35;;;;;;;39.10;19.70;;;4.00;99.90;;;;;;5058346;28;20044;-76
2024/01/28 10:03:00;;;;;;;36.28;16.38;;;4.00;99.90;;;;;;5049739;28;20028;-76
2024/01/28 10:05:26;;;;;;;38.90;19.75;;;4.10;99.90;;;;;;5037419;28;20025;-75
2024/01/28 10:08:01;;;;;;;39.72;18.27;;;4.10;99.90;;;;;;5057428;28;20027;-76
2024/01/28 10:10:26;;;;;;;40.63;17.38;;;4.30;99.90;;;;;;5058688;28;20094;-76
2024/01/28 10:12:52;;;;;;;36.83;18.15;;;4.40;99.90;;;;;;5059282;28;20485;-77
2024/01/28 10:15:23;;;;;;;39.17;17.60;;;4.50;99.90;;;;;;5042821;28;20414;-77
2024/01/28 10:17:49;;;;;;;31.70;15.30;;;4.60;99.90;;;;;;5058436;28;20024;-76
2024/01/28 10:20:19;;;;;;;31.52;15.77;;;4.60;99.90;;;;;;5041583;28;20044;-76
2024/01/28 10:22:44;;;;;;;31.08;16.58;;;4.70;99.90;;;;;;5040892;28;20454;-76
2024/01/28 10:25:12;;;;;;;30.25;14.13;;;4.80;99.90;;;;;;5040131;28;21199;-76
2024/01/28 10:27:37;;;;;;;31.30;15.32;;;4.80;99.90;;;;;;5039080;28;20043;-76
2024/01/28 10:30:06;;;;;;;30.23;14.85;;;4.90;99.90;;;;;;5059025;28;20100;-75
2024/01/28 10:32:33;;;;;;;25.88;13.30;;;5.00;99.90;;;;;;5057085;28;20021;-76
2024/01/28 10:34:58;;;;;;;27.95;12.68;;;5.10;99.90;;;;;;5066940;28;20040;-76
2024/01/28 10:37:29;;;;;;;26.70;12.52;;;5.20;99.90;;;;;;5078909;28;20019;-76
2024/01/28 10:40:01;;;;;;;29.48;12.75;;;5.20;99.90;;;;;;5077982;28;20020;-76
2024/01/28 10:42:27;;;;;;;26.33;13.00;;;5.30;99.90;;;;;;5078342;28;20063;-76
2024/01/28 10:44:56;;;;;;;22.15;12.20;;;5.40;99.90;;;;;;5074693;28;20074;-76
2024/01/28 10:47:25;;;;;;;23.27;12.05;;;5.50;99.90;;;;;;5068290;28;20194;-75
2024/01/28 10:49:58;;;;;;;23.77;12.15;;;5.50;99.90;;;;;;5069093;28;20489;-76
2024/01/28 10:52:24;;;;;;;21.58;10.93;;;5.60;99.90;;;;;;5073124;28;20044;-78
2024/01/28 10:54:51;;;;;;;24.80;12.52;;;5.70;99.90;;;;;;5089804;28;20118;-75
2024/01/28 10:57:22;;;;;;;23.73;12.85;;;5.70;99.90;;;;;;5092765;28;20032;-76
2024/01/28 10:59:51;;;;;;;19.23;11.00;;;5.70;99.90;;;;;;5092406;28;20410;-76
2024/01/28 11:02:19;;;;;;;109.25;48.20;;;5.80;99.90;;;;;;5093632;28;20106;-75
2024/01/28 11:04:46;;;;;;;23.30;13.95;;;5.90;99.90;;;;;;5093624;28;20115;-76
2024/01/28 11:07:12;;;;;;;29.77;12.77;;;6.00;99.90;;;;;;5091687;28;20020;-77
2024/01/28 11:09:39;;;;;;;19.13;10.18;;;6.00;99.90;;;;;;5090488;28;20035;-76
2024/01/28 11:12:06;;;;;;;21.60;10.10;;;6.10;99.90;;;;;;5091423;28;20246;-78
2024/01/28 11:14:33;;;;;;;22.10;11.10;;;6.20;99.90;;;;;;5091739;28;20095;-76
2024/01/28 11:16:58;;;;;;;20.02;10.50;;;6.30;99.90;;;;;;5091986;28;20480;-76
2024/01/28 11:19:28;;;;;;;19.98;12.07;;;6.30;99.90;;;;;;5092084;28;20099;-75
2024/01/28 11:21:58;;;;;;;18.55;10.38;;;6.40;99.90;;;;;;5092103;28;20024;-75
2024/01/28 11:24:24;;;;;;;17.42;10.02;;;6.40;99.90;;;;;;5092101;28;20480;-76
2024/01/28 11:26:49;;;;;;;22.85;11.00;;;6.40;99.90;;;;;;5074216;28;20036;-76
2024/01/28 11:29:16;;;;;;;20.27;9.93;;;6.50;99.90;;;;;;5071346;28;20496;-76
2024/01/28 11:31:43;;;;;;;18.02;9.45;;;6.50;99.90;;;;;;5072403;28;20028;-76
2024/01/28 11:34:15;;;;;;;19.05;9.68;;;6.60;99.90;;;;;;5062477;28;20045;-77
2024/01/28 11:36:46;;;;;;;20.25;11.57;;;6.60;99.90;;;;;;5033548;28;20389;-76
2024/01/28 11:39:13;;;;;;;17.33;9.43;;;6.70;99.90;;;;;;5052035;28;20078;-76
2024/01/28 11:41:41;;;;;;;17.02;9.63;;;6.70;99.90;;;;;;5034099;28;20032;-77
2024/01/28 11:44:08;;;;;;;16.55;9.35;;;6.80;99.90;;;;;;5052780;28;20021;-77
2024/01/28 11:46:38;;;;;;;13.70;8.65;;;6.90;99.90;;;;;;5034500;28;20501;-76
2024/01/28 11:49:05;;;;;;;18.50;9.25;;;6.90;99.90;;;;;;5052688;28;20029;-76
2024/01/28 11:51:32;;;;;;;17.58;9.68;;;6.90;99.90;;;;;;5034746;28;20404;-76
2024/01/28 11:54:05;;;;;;;16.15;10.20;;;7.00;99.90;;;;;;5052184;28;20045;-76
2024/01/28 11:56:32;;;;;;;15.50;8.35;;;7.10;99.90;;;;;;5034274;28;20033;-77
2024/01/28 11:58:58;;;;;;;14.48;8.70;;;7.10;99.90;;;;;;5034334;28;20071;-76
2024/01/28 12:01:25;;;;;;;14.80;8.05;;;7.10;99.90;;;;;;5052016;28;20029;-76
2024/01/28 12:03:54;;;;;;;16.73;9.10;;;7.10;99.90;;;;;;5034292;28;20355;-76
2024/01/28 12:06:24;;;;;;;18.63;9.15;;;7.40;99.90;;;;;;5033870;28;20036;-76
2024/01/28 12:08:50;;;;;;;13.77;7.88;;;7.20;99.90;;;;;;5030922;28;20043;-75
2024/01/28 12:11:21;;;;;;;15.70;9.23;;;7.30;99.90;;;;;;5033530;28;20557;-75
2024/01/28 12:13:48;;;;;;;14.82;8.10;;;7.30;99.90;;;;;;5051450;28;20478;-76
2024/01/28 12:16:19;;;;;;;13.52;7.95;;;7.40;99.90;;;;;;5051770;28;20029;-77
2024/01/28 12:18:45;;;;;;;12.20;7.28;;;7.40;99.90;;;;;;5051911;28;20017;-76
2024/01/28 12:21:27;;;;;;;14.15;8.10;;;7.50;99.90;;;;;;5051760;28;20120;-76
2024/01/28 12:23:59;;;;;;;16.90;9.18;;;7.50;99.90;;;;;;5051967;28;20067;-75
2024/01/28 12:26:25;;;;;;;13.00;7.85;;;7.60;99.90;;;;;;5033795;28;20021;-77
2024/01/28 12:28:52;;;;;;;16.27;8.85;;;7.60;99.90;;;;;;5051098;28;20485;-76
2024/01/28 12:31:19;;;;;;;15.20;8.43;;;7.60;99.90;;;;;;5051569;28;20044;-77
2024/01/28 12:33:46;;;;;;;12.52;7.70;;;7.70;99.90;;;;;;5051227;28;20049;-76
2024/01/28 12:36:12;;;;;;;10.50;7.38;;;7.80;99.90;;;;;;5051432;28;20122;-75